createdAt,value
2022-11-24T00:01:40.193Z,66.07
2022-11-24T00:04:10.661Z,64.77
2022-11-24T00:06:40.649Z,63.83
2022-11-24T00:09:14.078Z,63.33
2022-11-24T00:11:44.057Z,63.20
2022-11-24T00:14:16.100Z,63.73
2022-11-24T00:16:46.164Z,64.57
2022-11-24T00:19:19.743Z,65.30
2022-11-24T00:21:50.378Z,64.73
2022-11-24T00:24:23.099Z,66.70
2022-11-24T00:26:53.086Z,63.97
2022-11-24T00:29:23.120Z,62.27
2022-11-24T00:31:53.101Z,66.03
2022-11-24T00:34:23.284Z,64.83
2022-11-24T00:36:53.333Z,64.90
2022-11-24T00:39:26.024Z,64.73
2022-11-24T00:41:56.004Z,66.27
2022-11-24T00:44:25.992Z,64.53
2022-11-24T00:46:56.088Z,63.97
2022-11-24T00:49:26.304Z,63.00
2022-11-24T00:51:56.400Z,62.07
2022-11-24T00:54:29.062Z,67.97
2022-11-24T00:56:59.087Z,64.80
2022-11-24T00:59:29.076Z,61.73
2022-11-24T01:01:59.255Z,62.17
2022-11-24T01:04:29.675Z,62.73
2022-11-24T01:06:59.649Z,65.33
2022-11-24T01:09:32.327Z,63.10
2022-11-24T01:12:05.202Z,74.47
2022-11-24T01:14:36.079Z,66.93
2022-11-24T01:17:06.588Z,67.20
2022-11-24T01:19:36.802Z,63.20
2022-11-24T01:22:06.992Z,63.60
2022-11-24T01:24:39.611Z,66.27
2022-11-24T01:27:10.349Z,63.83
2022-11-24T01:29:40.412Z,63.57
2022-11-24T01:32:10.570Z,62.33
2022-11-24T01:34:40.513Z,65.07
2022-11-24T01:37:10.676Z,63.87
2022-11-24T01:39:44.184Z,61.43
2022-11-24T01:42:14.410Z,61.40
2022-11-24T01:44:45.187Z,61.07
2022-11-24T01:47:32.520Z,59.73
2022-11-24T01:50:05.687Z,60.63
2022-11-24T01:52:40.022Z,59.97
2022-11-24T01:55:16.921Z,61.63
2022-11-24T01:57:51.525Z,60.03
2022-11-24T02:00:21.899Z,64.17
2022-11-24T02:02:52.762Z,60.67
2022-11-24T02:05:27.096Z,62.77
2022-11-24T02:08:00.303Z,61.07
2022-11-24T02:10:33.210Z,60.50
2022-11-24T02:13:03.536Z,60.97
2022-11-24T02:15:35.310Z,61.20
2022-11-24T02:18:05.865Z,60.53
2022-11-24T02:20:36.723Z,60.27
2022-11-24T02:23:14.004Z,60.13
2022-11-24T02:25:54.675Z,59.27
2022-11-24T02:28:31.058Z,62.20
2022-11-24T02:31:02.715Z,57.43
2022-11-24T02:33:33.235Z,62.17
2022-11-24T02:36:03.287Z,58.57
2022-11-24T02:38:34.639Z,53.07
2022-11-24T02:41:08.917Z,53.43
2022-11-24T02:43:45.545Z,54.13
2022-11-24T02:46:15.635Z,53.13
2022-11-24T02:48:45.671Z,56.90
2022-11-24T02:51:15.773Z,52.63
2022-11-24T02:53:45.886Z,51.83
2022-11-24T02:56:16.250Z,50.20
2022-11-24T02:58:48.813Z,52.90
2022-11-24T03:01:19.035Z,51.33
2022-11-24T03:03:49.193Z,51.40
2022-11-24T03:06:19.688Z,52.03
2022-11-24T03:08:49.881Z,50.23
2022-11-24T03:11:19.842Z,48.83
2022-11-24T03:13:52.518Z,53.13
2022-11-24T03:16:22.645Z,50.30
2022-11-24T03:18:53.855Z,55.20
2022-11-24T03:21:23.899Z,51.53
2022-11-24T03:23:55.184Z,50.10
2022-11-24T03:26:27.346Z,49.83
2022-11-24T03:29:00.404Z,47.97
2022-11-24T03:31:30.542Z,46.87
2022-11-24T03:34:00.588Z,48.10
2022-11-24T03:36:30.617Z,47.47
2022-11-24T03:39:00.644Z,50.80
2022-11-24T03:41:30.626Z,48.60
2022-11-24T03:44:03.452Z,50.13
2022-11-24T03:46:33.663Z,47.93
2022-11-24T03:49:03.883Z,51.07
2022-11-24T03:51:33.981Z,49.90
2022-11-24T03:54:04.173Z,47.63
2022-11-24T03:56:34.130Z,50.00
2022-11-24T03:59:06.769Z,49.80
2022-11-24T04:01:37.197Z,49.80
2022-11-24T04:04:07.624Z,51.43
2022-11-24T04:06:37.690Z,49.17
2022-11-24T04:09:08.105Z,47.97
2022-11-24T04:11:50.465Z,46.70
2022-11-24T04:14:23.082Z,47.13
2022-11-24T04:16:53.077Z,49.10
2022-11-24T04:19:23.073Z,47.33
2022-11-24T04:21:53.168Z,51.63
2022-11-24T04:24:23.284Z,45.87
2022-11-24T04:26:53.298Z,46.87
2022-11-24T04:29:25.878Z,43.97
2022-11-24T04:31:55.892Z,45.93
2022-11-24T04:34:25.897Z,44.43
2022-11-24T04:36:55.903Z,49.00
2022-11-24T04:39:28.016Z,42.43
2022-11-24T04:41:58.639Z,47.43
2022-11-24T04:44:31.366Z,45.17
2022-11-24T04:47:01.472Z,45.47
2022-11-24T04:49:31.630Z,45.00
2022-11-24T04:52:02.135Z,44.80
2022-11-24T04:54:32.387Z,43.27
2022-11-24T04:57:02.541Z,42.87
2022-11-24T04:59:35.288Z,41.63
2022-11-24T05:02:05.399Z,40.97
2022-11-24T05:04:35.712Z,41.50
2022-11-24T05:07:06.435Z,41.63
2022-11-24T05:09:59.677Z,41.00
2022-11-24T05:12:31.372Z,40.00
2022-11-24T05:15:05.077Z,41.90
2022-11-24T05:17:36.982Z,41.00
2022-11-24T05:20:09.154Z,43.40
2022-11-24T05:22:39.161Z,44.33
2022-11-24T05:25:09.483Z,44.73
2022-11-24T05:27:39.505Z,41.43
2022-11-24T05:30:13.224Z,51.57
2022-11-24T05:32:43.691Z,41.47
2022-11-24T05:35:14.445Z,38.90
2022-11-24T05:37:44.539Z,37.93
2022-11-24T05:40:14.614Z,42.77
2022-11-24T05:42:47.855Z,41.23
2022-11-24T05:45:23.215Z,38.80
2022-11-24T05:47:54.075Z,37.57
2022-11-24T05:50:25.746Z,38.03
2022-11-24T05:52:55.702Z,38.60
2022-11-24T05:55:25.576Z,38.73
2022-11-24T05:58:01.219Z,41.73
2022-11-24T06:00:35.226Z,37.83
2022-11-24T06:03:05.568Z,34.40
2022-11-24T06:05:35.530Z,36.50
2022-11-24T06:08:05.454Z,37.17
2022-11-24T06:10:35.355Z,37.97
2022-11-24T06:13:08.731Z,37.77
2022-11-24T06:15:41.538Z,35.60
2022-11-24T06:18:11.491Z,36.47
2022-11-24T06:21:02.903Z,35.53
2022-11-24T06:23:33.958Z,38.80
2022-11-24T06:26:04.027Z,33.43
2022-11-24T06:28:34.149Z,35.27
2022-11-24T06:31:08.479Z,31.40
2022-11-24T06:33:40.542Z,35.03
2022-11-24T06:36:14.972Z,39.27
2022-11-24T06:38:44.903Z,36.10
2022-11-24T06:41:18.080Z,38.57
2022-11-24T06:43:48.361Z,33.50
2022-11-24T06:46:21.027Z,35.83
2022-11-24T06:48:51.042Z,34.73
2022-11-24T06:51:21.696Z,34.13
2022-11-24T06:53:51.630Z,35.50
2022-11-24T06:56:23.148Z,35.63
2022-11-24T06:58:55.155Z,34.80
2022-11-24T07:01:29.380Z,31.93
2022-11-24T07:03:59.965Z,31.33
2022-11-24T07:06:30.092Z,33.33
2022-11-24T07:09:00.073Z,32.63
2022-11-24T07:11:30.190Z,33.77
2022-11-24T07:14:00.801Z,42.77
2022-11-24T07:16:33.649Z,34.27
2022-11-24T07:19:03.968Z,30.47
2022-11-24T07:21:33.968Z,31.93
2022-11-24T07:24:03.961Z,34.83
2022-11-24T07:26:37.412Z,34.07
2022-11-24T07:29:07.861Z,33.37
2022-11-24T07:31:40.748Z,32.67
2022-11-24T07:34:10.936Z,32.53
2022-11-24T07:36:40.908Z,30.60
2022-11-24T07:39:11.119Z,29.90
2022-11-24T07:41:41.099Z,29.97
2022-11-24T07:44:11.218Z,29.57
2022-11-24T07:46:43.798Z,29.73
2022-11-24T07:49:13.801Z,28.93
2022-11-24T07:51:44.124Z,30.77
2022-11-24T07:54:14.746Z,29.27
2022-11-24T07:56:44.889Z,28.80
2022-11-24T07:59:14.795Z,29.20
2022-11-24T08:01:48.324Z,32.27
2022-11-24T08:04:18.286Z,33.33
2022-11-24T08:06:48.221Z,31.53
2022-11-24T08:09:18.120Z,32.43
2022-11-24T08:11:48.118Z,33.07
2022-11-24T08:14:18.091Z,31.60
2022-11-24T08:16:50.694Z,29.93
2022-11-24T08:19:20.668Z,29.80
2022-11-24T08:21:50.581Z,32.33
2022-11-24T08:24:20.513Z,30.80
2022-11-24T08:26:50.572Z,31.07
2022-11-24T08:29:20.759Z,31.20
2022-11-24T08:31:53.398Z,33.20
2022-11-24T08:34:24.020Z,32.27
2022-11-24T08:36:54.022Z,32.70
2022-11-24T08:39:24.472Z,30.27
2022-11-24T08:41:54.476Z,32.13
2022-11-24T08:44:24.614Z,32.27
2022-11-24T08:46:57.658Z,32.97
2022-11-24T08:49:27.677Z,32.47
2022-11-24T08:52:00.699Z,33.20
2022-11-24T08:54:31.059Z,33.90
2022-11-24T08:57:00.993Z,35.83
2022-11-24T08:59:31.097Z,35.93
2022-11-24T09:02:03.749Z,33.80
2022-11-24T09:04:34.232Z,33.93
2022-11-24T09:07:07.930Z,34.47
2022-11-24T09:09:38.166Z,35.87
2022-11-24T09:12:14.353Z,39.50
2022-11-24T09:14:45.160Z,35.27
2022-11-24T09:17:17.774Z,36.63
2022-11-24T09:19:48.106Z,35.73
2022-11-24T09:22:19.247Z,34.20
2022-11-24T09:24:49.408Z,33.17
2022-11-24T09:27:19.543Z,32.90
2022-11-24T09:29:49.509Z,32.67
2022-11-24T09:32:22.178Z,32.17
2022-11-24T09:34:53.332Z,34.47
2022-11-24T09:37:26.929Z,33.43
2022-11-24T09:39:59.581Z,37.53
2022-11-24T09:42:36.970Z,32.90
2022-11-24T09:45:35.403Z,31.53
2022-11-24T09:48:18.796Z,33.70
2022-11-24T09:50:51.319Z,34.10
2022-11-24T09:53:30.792Z,32.17
2022-11-24T09:56:03.722Z,31.77
2022-11-24T09:58:39.897Z,31.40
2022-11-24T10:01:18.354Z,32.73
2022-11-24T10:03:53.321Z,39.40
2022-11-24T10:06:30.668Z,37.13
2022-11-24T10:09:13.506Z,30.67
2022-11-24T10:11:53.016Z,31.07
2022-11-24T10:14:43.906Z,32.43
2022-11-24T10:17:21.620Z,31.47
2022-11-24T10:20:00.486Z,31.33
2022-11-24T10:22:52.959Z,32.53
2022-11-24T10:25:27.410Z,31.90
2022-11-24T10:28:02.101Z,31.60
2022-11-24T10:30:32.750Z,32.23
2022-11-24T10:33:09.246Z,32.77
2022-11-24T10:35:47.467Z,32.90
2022-11-24T10:38:35.064Z,32.60
2022-11-24T10:41:10.635Z,33.27
2022-11-24T10:43:43.871Z,39.90
2022-11-24T10:46:17.931Z,33.93
2022-11-24T10:48:53.960Z,31.10
2022-11-24T10:51:49.836Z,32.37
2022-11-24T10:54:22.052Z,32.33
2022-11-24T10:56:54.565Z,32.77
2022-11-24T10:59:33.541Z,32.27
2022-11-24T11:02:04.366Z,31.80
2022-11-24T11:04:36.628Z,32.07
2022-11-24T11:07:20.423Z,31.07
2022-11-24T11:09:51.328Z,29.77
2022-11-24T11:12:43.489Z,32.97
2022-11-24T11:15:26.468Z,30.03
2022-11-24T11:18:01.120Z,32.57
2022-11-24T11:20:34.045Z,32.97
2022-11-24T11:23:17.702Z,30.73
2022-11-24T11:25:48.494Z,31.80
2022-11-24T11:28:36.432Z,31.87
2022-11-24T11:31:17.776Z,33.23
2022-11-24T11:34:09.509Z,30.50
2022-11-24T11:36:46.830Z,31.63
2022-11-24T11:39:29.207Z,30.60
2022-11-24T11:42:10.908Z,31.17
2022-11-24T11:44:44.783Z,32.03
2022-11-24T11:47:22.954Z,32.73
2022-11-24T11:49:53.269Z,31.90
2022-11-24T11:52:53.674Z,30.67
2022-11-24T11:55:39.250Z,32.77
2022-11-24T11:58:26.851Z,31.43
2022-11-24T12:01:07.593Z,31.53
2022-11-24T12:03:59.181Z,33.67
2022-11-24T12:06:48.806Z,33.50
2022-11-24T12:09:31.989Z,31.93
2022-11-24T12:12:22.647Z,32.17
2022-11-24T12:15:07.348Z,32.80
2022-11-24T12:17:45.594Z,31.93
2022-11-24T12:20:41.932Z,33.50
2022-11-24T12:23:21.705Z,33.50
2022-11-24T12:26:02.105Z,33.50
2022-11-24T12:28:48.077Z,34.00
2022-11-24T12:31:29.030Z,33.13
2022-11-24T12:34:22.884Z,33.97
2022-11-24T12:37:14.841Z,33.17
2022-11-24T12:39:55.539Z,32.53
2022-11-24T12:42:35.178Z,31.60
2022-11-24T12:45:19.693Z,31.93
2022-11-24T12:48:06.114Z,31.83
2022-11-24T12:50:40.676Z,32.97
2022-11-24T12:53:16.481Z,33.73
2022-11-24T12:55:47.443Z,34.70
2022-11-24T12:58:23.289Z,34.73
2022-11-24T13:01:14.815Z,34.87
2022-11-24T13:03:59.994Z,34.03
2022-11-24T13:06:37.612Z,34.17
2022-11-24T13:09:12.190Z,36.60
2022-11-24T13:11:45.152Z,36.27
2022-11-24T13:14:21.711Z,34.70
2022-11-24T13:17:28.032Z,33.07
2022-11-24T13:19:51.082Z,35.97
2022-11-24T13:22:27.253Z,36.13
2022-11-24T13:25:16.591Z,35.80
2022-11-24T13:27:49.224Z,35.30
2022-11-24T13:31:12.123Z,36.10
2022-11-24T13:33:45.170Z,34.60
2022-11-24T13:36:33.868Z,34.87
2022-11-24T13:39:06.648Z,38.60
2022-11-24T13:42:10.001Z,37.17
2022-11-24T13:45:01.880Z,34.00
2022-11-24T13:47:41.011Z,35.90
2022-11-24T13:50:26.314Z,36.10
2022-11-24T13:53:01.974Z,36.83
2022-11-24T13:55:38.713Z,35.40
2022-11-24T13:58:32.717Z,37.17
2022-11-24T14:01:13.642Z,35.20
2022-11-24T14:04:21.565Z,35.43
2022-11-24T14:06:45.117Z,34.87
2022-11-24T14:09:26.996Z,36.70
2022-11-24T14:12:09.072Z,37.57
2022-11-24T14:14:39.112Z,36.50
2022-11-24T14:17:20.600Z,39.77
2022-11-24T14:19:52.185Z,38.13
2022-11-24T14:22:27.752Z,39.90
2022-11-24T14:25:00.679Z,40.57
2022-11-24T14:27:37.009Z,39.13
2022-11-24T14:30:20.381Z,38.37
2022-11-24T14:32:58.157Z,39.90
2022-11-24T14:35:30.608Z,38.00
2022-11-24T14:38:05.311Z,39.10
2022-11-24T14:40:43.984Z,39.20
2022-11-24T14:43:22.269Z,37.23
2022-11-24T14:45:54.099Z,39.47
2022-11-24T14:48:29.037Z,38.53
2022-11-24T14:51:10.251Z,37.73
2022-11-24T14:53:44.772Z,37.00
2022-11-24T14:56:26.622Z,37.87
2022-11-24T14:58:57.646Z,35.53
2022-11-24T15:01:36.698Z,34.17
2022-11-24T15:07:21.968Z,37.37
2022-11-24T15:09:58.057Z,35.70
2022-11-24T15:12:31.558Z,35.90
2022-11-24T15:15:04.836Z,34.77
2022-11-24T15:17:35.051Z,36.30
2022-11-24T15:20:11.164Z,36.37
2022-11-24T15:22:43.771Z,36.90
2022-11-24T15:25:36.654Z,39.23
2022-11-24T15:28:06.739Z,39.27
2022-11-24T15:30:38.150Z,37.43
2022-11-24T15:33:16.473Z,38.77
2022-11-24T15:35:47.516Z,39.53
2022-11-24T15:38:18.108Z,39.50
2022-11-24T15:40:52.769Z,40.37
2022-11-24T15:43:30.666Z,43.00
2022-11-24T15:46:02.073Z,43.47
2022-11-24T15:48:36.377Z,41.43
2022-11-24T15:51:08.847Z,40.50
2022-11-24T15:53:42.228Z,41.90
2022-11-24T15:56:17.895Z,39.53
2022-11-24T15:58:48.535Z,40.87
2022-11-24T16:01:18.824Z,41.53
2022-11-24T16:03:49.444Z,115.70
2022-11-24T16:06:25.029Z,43.37
2022-11-24T16:08:56.057Z,39.10
2022-11-24T16:11:29.133Z,37.27
2022-11-24T16:13:59.236Z,37.53
2022-11-24T16:16:29.309Z,38.83
2022-11-24T16:18:59.267Z,38.80
2022-11-24T16:21:29.257Z,38.33
2022-11-24T16:23:59.280Z,38.30
2022-11-24T16:26:31.825Z,39.10
2022-11-24T16:29:01.772Z,41.37
2022-11-24T16:31:31.807Z,40.33
2022-11-24T16:34:02.095Z,41.90
2022-11-24T16:36:32.364Z,39.77
2022-11-24T16:39:02.694Z,42.10
2022-11-24T16:41:35.346Z,42.23
2022-11-24T16:44:05.431Z,39.50
2022-11-24T16:46:35.552Z,40.10
2022-11-24T16:49:05.861Z,38.73
2022-11-24T16:51:35.896Z,38.57
2022-11-24T16:54:06.587Z,43.50
2022-11-24T16:56:39.161Z,46.27
2022-11-24T16:59:09.197Z,36.40
2022-11-24T17:01:40.253Z,34.93
2022-11-24T17:04:12.719Z,33.93
2022-11-24T17:06:43.135Z,34.90
2022-11-24T17:09:13.420Z,36.17
2022-11-24T17:11:46.141Z,34.40
2022-11-24T17:14:16.502Z,36.20
2022-11-24T17:16:46.605Z,36.00
2022-11-24T17:19:16.766Z,36.80
2022-11-24T17:21:46.735Z,36.33
2022-11-24T17:24:18.188Z,37.43
2022-11-24T17:26:52.309Z,36.97
2022-11-24T17:29:23.229Z,37.10
2022-11-24T17:31:53.314Z,37.17
2022-11-24T17:34:23.600Z,35.90
2022-11-24T17:36:53.557Z,36.70
2022-11-24T17:39:25.190Z,36.93
2022-11-24T17:41:58.065Z,37.63
2022-11-24T17:44:28.455Z,35.03
2022-11-24T17:46:58.967Z,37.07
2022-11-24T17:49:29.063Z,37.93
2022-11-24T17:51:59.219Z,37.30
2022-11-24T17:54:46.054Z,160.30
2022-11-24T17:57:22.188Z,39.77
2022-11-24T17:59:53.298Z,37.27
2022-11-24T18:02:24.475Z,40.27
2022-11-24T18:04:54.742Z,40.63
2022-11-24T18:07:24.993Z,39.37
2022-11-24T18:09:55.087Z,39.83
2022-11-24T18:12:27.932Z,40.50
2022-11-24T18:14:58.016Z,40.20
2022-11-24T18:17:29.091Z,41.10
2022-11-24T18:19:59.200Z,40.97
2022-11-24T18:22:57.932Z,39.97
2022-11-24T18:25:19.331Z,40.57
2022-11-24T18:27:52.208Z,41.30
2022-11-24T18:30:22.346Z,38.67
2022-11-24T18:32:52.365Z,37.73
2022-11-24T18:35:22.425Z,41.00
2022-11-24T18:37:52.371Z,40.53
2022-11-24T18:40:22.481Z,39.27
2022-11-24T18:42:55.246Z,40.23
2022-11-24T18:45:27.443Z,40.13
2022-11-24T18:47:57.568Z,42.73
2022-11-24T18:50:27.611Z,38.63
2022-11-24T18:52:57.551Z,40.07
2022-11-24T18:55:27.551Z,39.83
2022-11-24T18:58:00.250Z,37.80
2022-11-24T19:00:30.233Z,42.03
2022-11-24T19:03:00.505Z,38.10
2022-11-24T19:05:30.530Z,41.53
2022-11-24T19:08:00.544Z,44.27
2022-11-24T19:10:30.692Z,41.70
2022-11-24T19:13:03.360Z,43.27
2022-11-24T19:15:35.781Z,42.40
2022-11-24T19:18:05.754Z,43.07
2022-11-24T19:20:37.349Z,39.43
2022-11-24T19:23:07.323Z,41.23
2022-11-24T19:25:37.285Z,43.67
2022-11-24T19:28:12.671Z,42.67
2022-11-24T19:30:45.386Z,41.87
2022-11-24T19:33:15.391Z,41.53
2022-11-24T19:35:45.540Z,43.53
2022-11-24T19:38:15.705Z,51.90
2022-11-24T19:40:45.644Z,41.00
2022-11-24T19:43:18.234Z,40.47
2022-11-24T19:45:48.239Z,47.00
2022-11-24T19:48:18.282Z,41.17
2022-11-24T19:50:48.298Z,39.47
2022-11-24T19:53:18.303Z,39.20
2022-11-24T19:55:48.236Z,40.20
2022-11-24T19:58:20.829Z,37.80
2022-11-24T20:00:50.891Z,38.87
2022-11-24T20:03:20.882Z,40.13
2022-11-24T20:05:58.089Z,42.87
2022-11-24T20:08:30.665Z,39.70
2022-11-24T20:11:06.117Z,39.27
2022-11-24T20:13:40.552Z,42.00
2022-11-24T20:16:12.810Z,39.57
2022-11-24T20:18:44.586Z,36.37
2022-11-24T20:21:16.218Z,38.43
2022-11-24T20:23:48.782Z,37.43
2022-11-24T20:26:23.040Z,38.90
2022-11-24T20:28:58.164Z,75.77
2022-11-24T20:31:30.158Z,47.17
2022-11-24T20:34:00.721Z,51.67
2022-11-24T20:36:32.846Z,39.60
2022-11-24T20:39:04.770Z,40.53
2022-11-24T20:41:36.532Z,39.43
2022-11-24T20:44:13.180Z,39.97
2022-11-24T20:46:44.966Z,39.33
2022-11-24T20:49:17.417Z,42.87
2022-11-24T20:51:47.840Z,39.77
2022-11-24T20:54:19.740Z,40.67
2022-11-24T20:56:50.715Z,41.43
2022-11-24T20:59:25.670Z,43.23
2022-11-24T21:01:59.266Z,42.20
2022-11-24T21:04:30.125Z,39.17
2022-11-24T21:07:00.046Z,37.63
2022-11-24T21:09:30.746Z,41.87
2022-11-24T21:12:01.371Z,38.13
2022-11-24T21:14:35.373Z,45.17
2022-11-24T21:17:05.524Z,45.57
2022-11-24T21:19:35.427Z,50.33
2022-11-24T21:22:05.405Z,41.20
2022-11-24T21:24:35.551Z,44.23
2022-11-24T21:27:05.676Z,41.10
2022-11-24T21:29:38.236Z,41.03
2022-11-24T21:32:08.773Z,41.23
2022-11-24T21:34:38.776Z,39.73
2022-11-24T21:37:08.691Z,40.63
2022-11-24T21:39:38.618Z,47.87
2022-11-24T21:42:09.275Z,40.47
2022-11-24T21:44:41.809Z,40.13
2022-11-24T21:47:11.770Z,38.90
2022-11-24T21:49:41.789Z,37.50
2022-11-24T21:52:11.656Z,37.63
2022-11-24T21:54:41.597Z,37.33
2022-11-24T21:57:12.413Z,38.17
2022-11-24T21:59:44.951Z,36.47
2022-11-24T22:02:15.478Z,39.53
2022-11-24T22:04:45.555Z,37.73
2022-11-24T22:07:15.797Z,35.53
2022-11-24T22:09:46.794Z,36.37
2022-11-24T22:12:16.737Z,34.23
2022-11-24T22:14:49.282Z,36.17
2022-11-24T22:17:19.337Z,35.53
2022-11-24T22:19:49.298Z,38.53
2022-11-24T22:22:19.224Z,35.27
2022-11-24T22:24:49.310Z,34.57
2022-11-24T22:27:19.592Z,38.93
2022-11-24T22:29:54.273Z,37.87
2022-11-24T22:32:24.547Z,40.27
2022-11-24T22:34:54.543Z,39.23
2022-11-24T22:37:24.523Z,37.10
2022-11-24T22:39:54.646Z,37.07
2022-11-24T22:42:24.758Z,36.30
2022-11-24T22:44:57.363Z,38.77
2022-11-24T22:47:27.326Z,36.33
2022-11-24T22:49:57.272Z,35.73
2022-11-24T22:52:27.178Z,39.27
2022-11-24T22:54:57.102Z,38.63
2022-11-24T22:57:27.042Z,38.70
2022-11-24T22:59:59.567Z,38.50
2022-11-24T23:02:29.712Z,37.67
2022-11-24T23:04:59.686Z,35.80
2022-11-24T23:07:29.668Z,36.43
2022-11-24T23:09:59.723Z,36.70
2022-11-24T23:12:29.736Z,36.67
2022-11-24T23:15:02.347Z,37.80
2022-11-24T23:17:32.435Z,36.70
2022-11-24T23:20:02.463Z,37.03
2022-11-24T23:22:32.417Z,36.00
2022-11-24T23:25:02.451Z,35.80
2022-11-24T23:27:32.489Z,36.10
2022-11-24T23:30:05.088Z,36.57
2022-11-24T23:32:35.066Z,36.97
2022-11-24T23:35:07.501Z,36.43
2022-11-24T23:38:06.023Z,36.57
2022-11-24T23:40:32.327Z,35.90
2022-11-24T23:43:02.244Z,35.63
2022-11-24T23:45:34.987Z,35.47
2022-11-24T23:48:05.357Z,37.17
2022-11-24T23:50:35.301Z,39.37
2022-11-24T23:53:05.233Z,41.60
2022-11-24T23:55:35.140Z,40.30
2022-11-24T23:58:05.297Z,36.80
